Accueil
METAR-TAF:

METAR-TAF

Aéroports :

Aéroport de Poitiers-Biard

Poitiers, France

latitude: 46-35N, longitude: 000-19E, altitude: 129 m

Observation

Le bulletin a été fait il y a 42 minutes, à 04:30 UTC
Vent 5 kt de sud/sud-est
Température 6°C
Humidité 100%
Pression 1017 hPa
Visibilité 10 km ou plus
pas de nuages en-dessous de 1500 mètres et pas de cumulonimbus.

METAR: LFBI 280430Z AUTO 16005KT CAVOK 06/06 Q1017 TEMPO 1500 BR

Heure: 07:12 (05:12 UTC)

Prévision

Le bulletin a été fait il y a 4 heures et 27 minutes, à 00:45 UTC
Prévision valable du 28 à 00 UTC au 28 à 24 UTC
Vent 5 kt de sud-est
Visibilité 10 km ou plus
pas de nuages en-dessous de 1500 mètres et pas de cumulonimbus.
Temporairement
du 28 à 00 UTC au 28 à 07 UTC
Visibilité: 1500 m
brume
Evoluant progressivement
du 28 à 10 UTC au 28 à 12 UTC
Vent 15 kt de sud/sud-est

TAF: LFBI 280045Z 2800/2824 13005KT CAVOK TEMPO 2800/2807 1500 BR BECMG 2810/2812 16015KT

Observations et prévisions météorologiques de plus de 4000 aéroports (messages METAR et TAF).

Les stations disponibles sont représentées par des disques jaunes et rouges sur la carte.

Passer la souris dessus pour voir le nom de la station.

Cliquer dessus pour voir les observations et prévisions météorologiques.

Pour changer de carte: cliquez sur les boutons verts avec une croix noire pour zoomer, sur le bouton vert avec un tiret pour effectuer un zoom arrière, ou sur les flèches vertes pour les cartes adjacentes.


METAR-TAF: